首页
METAR-TAF:

METAR-TAF

机场 :

維也納國際機場

維也納, 奥地利

纬度: 48-07N, 经度: 016-34E, 海拔: 183米

当前天气观测

该预报发布于15分钟前的14:20 UTC
风速6节,风向北转西北
温度 4°C
湿度 81%
气压 1045 hPa
能见度10公里或以上
少量云层高于1800英尺
多云层高于2800英尺

METAR: LOWW 201420Z 33006KT 9999 FEW018 BKN028 04/01 Q1045 R88/19//95 NOSIG

时间: 15:35 (14:35 UTC)

预报

该预报发布于3小时和20分钟前的11:15 UTC
预报有效从20日的 12点(UTC)到 21日的 18点(UTC)
风速8节,风向北转西北
能见度10公里或以上
多云层高于2000英尺
成为
从 20日的 18点(UTC)到 20日的 20点(UTC)
风速2节,风向多变
短暂存在
从 20日的 22点(UTC)到 21日的 03点(UTC)
能見度: 1200
散云层高于100英尺
散云层高于2000英尺
成为
从 21日的 01点(UTC)到 21日的 03点(UTC)
能見度: 0500
层高于100英尺
冻雾
几率 40% :
短暂存在
从 21日的 03点(UTC)到 21日的 09点(UTC)
能見度: 0300
成为
从 21日的 10点(UTC)到 21日的 12点(UTC)
风速5节,风向东转东南
能見度: 2000
少量云层高于100英尺
多云层高于400英尺
轻雾

TAF: LOWW 201115Z 2012/2118 33008KT 9999 BKN020 TX04/2012Z TNM03/2103Z BECMG 2018/2020 VRB02KT TEMPO 2022/2103 1200 FZBCFG SCT001 SCT020 BECMG 2101/2103 0500 FZFG VV001 PROB40 TEMPO 2103/2109 0300 BECMG 2110/2112 12005KT 2000 BR FEW001 BKN004

超过4000个机场的气象观测和天气预报(METAR&TAF报告)。

可查询的气象台以黄色和红色小点在地图上表示。

将鼠标移到小点上方,可查看气象台名称。

然后点击查看天气观测和预报。

如需切换地图:点击带黑十字的绿色按钮放大地图;点击带横线的绿色按钮缩小地图;或者点击绿色箭头查看邻近地区的地图。


METAR-TAF: